createdAt,value
2019-03-30T00:03:09.408Z,102128.68
2019-03-30T00:08:12.945Z,102117.92
2019-03-30T00:13:16.568Z,102120.73
2019-03-30T00:18:20.127Z,102118.70
2019-03-30T00:23:23.683Z,102111.33
2019-03-30T00:28:27.215Z,102112.43
2019-03-30T00:33:30.766Z,102100.14
2019-03-30T00:38:34.289Z,102095.81
2019-03-30T00:43:37.843Z,102095.36
2019-03-30T00:48:41.385Z,102093.20
2019-03-30T00:53:44.940Z,102090.66
2019-03-30T00:58:48.514Z,102088.13
2019-03-30T01:03:52.735Z,102083.38
2019-03-30T01:08:57.041Z,102081.23
2019-03-30T01:14:03.040Z,102083.86
2019-03-30T01:19:07.359Z,102078.21
2019-03-30T01:24:11.325Z,102076.52
2019-03-30T01:29:14.973Z,102072.19
2019-03-30T01:34:18.496Z,102062.62
2019-03-30T01:39:22.051Z,102057.89
2019-03-30T01:44:25.595Z,102053.58
2019-03-30T01:49:29.143Z,102041.42
2019-03-30T01:54:32.663Z,102042.31
2019-03-30T01:59:36.203Z,102035.33
2019-03-30T02:04:39.729Z,102036.67
2019-03-30T02:09:43.271Z,102029.31
2019-03-30T02:14:46.796Z,102018.44
2019-03-30T02:19:50.438Z,102024.98
2019-03-30T02:24:53.971Z,102016.30
2019-03-30T02:29:57.493Z,102011.12
2019-03-30T02:35:01.050Z,102013.31
2019-03-30T02:40:04.895Z,102007.25
2019-03-30T02:45:09.643Z,102004.21
2019-03-30T02:50:13.311Z,102005.95
2019-03-30T02:55:19.325Z,101998.55
2019-03-30T03:00:23.104Z,101997.20
2019-03-30T03:05:26.690Z,101992.37
2019-03-30T03:10:30.487Z,101986.66
2019-03-30T03:15:34.002Z,101982.27
2019-03-30T03:20:37.546Z,101984.39
2019-03-30T03:25:41.103Z,101973.95
2019-03-30T03:30:45.495Z,101979.64
2019-03-30T03:35:49.121Z,101964.89
2019-03-30T03:40:52.657Z,101963.64
2019-03-30T03:45:56.201Z,101955.41
2019-03-30T03:51:03.984Z,101954.63
2019-03-30T03:56:09.419Z,101952.53
2019-03-30T04:01:15.790Z,101944.80
2019-03-30T04:06:23.543Z,101937.00
2019-03-30T04:11:30.812Z,101927.44
2019-03-30T04:16:34.364Z,101920.92
2019-03-30T04:21:44.167Z,101909.22
2019-03-30T04:26:43.381Z,101911.45
2019-03-30T04:31:46.925Z,101899.76
2019-03-30T04:36:50.532Z,101897.20
2019-03-30T04:41:54.087Z,101895.85
2019-03-30T04:46:57.666Z,101896.30
2019-03-30T04:52:01.213Z,101890.64
2019-03-30T04:57:04.783Z,101894.96
2019-03-30T05:02:08.352Z,101885.03
2019-03-30T05:07:11.902Z,101890.28
2019-03-30T05:12:15.446Z,101882.02
2019-03-30T05:17:18.975Z,101881.16
2019-03-30T05:22:22.569Z,101886.78
2019-03-30T05:27:26.153Z,101883.34
2019-03-30T05:32:29.726Z,101885.50
2019-03-30T05:37:33.266Z,101882.04
2019-03-30T05:42:36.822Z,101884.19
2019-03-30T05:47:40.396Z,101889.32
2019-03-30T05:52:43.984Z,101889.27
2019-03-30T05:57:47.545Z,101887.05
2019-03-30T06:02:51.184Z,101892.19
2019-03-30T06:07:54.809Z,101891.28
2019-03-30T06:13:00.181Z,101891.66
2019-03-30T06:18:03.757Z,101883.70
2019-03-30T06:23:07.458Z,101882.65
2019-03-30T06:28:11.070Z,101876.81
2019-03-30T06:33:15.298Z,101880.95
2019-03-30T06:38:18.865Z,101867.11
2019-03-30T06:43:22.521Z,101866.27
2019-03-30T06:48:26.067Z,101868.42
2019-03-30T06:53:29.624Z,101869.27
2019-03-30T06:58:33.163Z,101862.73
2019-03-30T07:03:37.018Z,101858.81
2019-03-30T07:08:42.693Z,101848.30
2019-03-30T07:13:48.826Z,101848.36
2019-03-30T07:18:53.120Z,101852.54
2019-03-30T07:23:56.654Z,101842.27
2019-03-30T07:29:00.341Z,101837.66
2019-03-30T07:34:03.920Z,101836.29
2019-03-30T07:39:07.453Z,101835.55
2019-03-30T07:44:11.002Z,101837.20
2019-03-30T07:49:14.705Z,101836.24
2019-03-30T07:54:18.250Z,101843.56
2019-03-30T07:59:21.900Z,101836.19
2019-03-30T08:04:28.515Z,101826.45
2019-03-30T08:09:30.892Z,101832.67
2019-03-30T08:14:34.472Z,101818.19
2019-03-30T08:19:38.018Z,101821.77
2019-03-30T08:24:41.553Z,101819.63
2019-03-30T08:29:45.092Z,101817.39
2019-03-30T08:34:48.660Z,101811.95
2019-03-30T08:39:52.192Z,101821.52
2019-03-30T08:44:55.735Z,101818.02
2019-03-30T08:49:59.357Z,101822.86
2019-03-30T08:55:03.014Z,101822.97
2019-03-30T09:00:07.969Z,101821.21
2019-03-30T09:05:11.610Z,101816.42
2019-03-30T09:10:15.207Z,101814.38
2019-03-30T09:15:18.776Z,101801.55
2019-03-30T09:20:22.331Z,101803.18
2019-03-30T09:25:25.888Z,101796.34
2019-03-30T09:30:29.537Z,101800.24
2019-03-30T09:35:33.081Z,101805.09
2019-03-30T09:40:36.611Z,101789.11
2019-03-30T09:45:40.921Z,101783.63
2019-03-30T09:50:45.284Z,101778.41
2019-03-30T09:55:49.489Z,101764.80
2019-03-30T10:00:53.246Z,101753.00
2019-03-30T10:05:57.336Z,101749.45
2019-03-30T10:11:00.906Z,101740.28
2019-03-30T10:16:04.412Z,101736.16
2019-03-30T10:21:07.959Z,101728.48
2019-03-30T10:26:11.520Z,101728.36
2019-03-30T10:31:15.092Z,101725.41
2019-03-30T10:36:18.652Z,101719.16
2019-03-30T10:41:22.180Z,101715.45
2019-03-30T10:46:25.761Z,101709.27
2019-03-30T10:51:29.290Z,101697.80
2019-03-30T10:56:32.918Z,101700.95
2019-03-30T11:01:36.542Z,101684.20
2019-03-30T11:06:40.331Z,101680.75
2019-03-30T11:11:43.997Z,101621.39
2019-03-30T11:16:47.562Z,101668.91
2019-03-30T11:21:51.106Z,101664.52
2019-03-30T11:26:54.671Z,101660.39
2019-03-30T11:31:58.241Z,101652.81
2019-03-30T11:37:01.869Z,101660.50
2019-03-30T11:42:05.639Z,101649.55
2019-03-30T11:47:09.603Z,101633.70
2019-03-30T11:52:24.880Z,101626.36
2019-03-30T11:57:50.833Z,101626.58
2019-03-30T12:03:40.701Z,101608.06
2019-03-30T12:08:51.558Z,101608.49
2019-03-30T12:14:04.185Z,101609.06
2019-03-30T12:19:52.232Z,101599.27
2019-03-30T12:25:07.432Z,101598.45
2019-03-30T12:30:12.295Z,101589.81
2019-03-30T12:35:17.267Z,101580.80
2019-03-30T12:40:22.446Z,101573.89
2019-03-30T12:45:26.818Z,101570.33
2019-03-30T12:50:32.194Z,101559.69
2019-03-30T12:55:48.698Z,101550.60
2019-03-30T13:00:43.300Z,101550.06
2019-03-30T13:05:48.282Z,101545.51
2019-03-30T13:10:52.975Z,101544.78
2019-03-30T13:15:57.892Z,101548.87
2019-03-30T13:21:03.154Z,101535.09
2019-03-30T13:26:07.544Z,101530.45
2019-03-30T13:31:12.673Z,101530.12
2019-03-30T13:36:17.502Z,101517.47
2019-03-30T13:41:23.177Z,101517.41
2019-03-30T13:46:27.521Z,101514.72
2019-03-30T13:51:32.337Z,101510.14
2019-03-30T13:56:38.104Z,101499.98
2019-03-30T14:01:42.733Z,101500.18
2019-03-30T14:06:47.177Z,101493.45
2019-03-30T14:11:51.493Z,101491.96
2019-03-30T14:16:56.133Z,101489.00
2019-03-30T14:22:01.008Z,101493.82
2019-03-30T14:27:05.640Z,101487.06
2019-03-30T14:32:10.291Z,101491.16
2019-03-30T14:37:16.772Z,101479.25
2019-03-30T14:42:21.335Z,101474.78
2019-03-30T14:47:25.942Z,101485.39
2019-03-30T14:52:30.528Z,101481.91
2019-03-30T14:57:34.943Z,101479.28
2019-03-30T15:02:40.216Z,101479.25
2019-03-30T15:07:44.563Z,101471.00
2019-03-30T15:12:49.212Z,101475.14
2019-03-30T15:17:53.676Z,101481.21
2019-03-30T15:22:58.539Z,101481.41
2019-03-30T15:28:03.243Z,101477.45
2019-03-30T15:33:07.996Z,101477.06
2019-03-30T15:38:12.956Z,101475.14
2019-03-30T15:43:18.501Z,101473.48
2019-03-30T15:48:23.495Z,101482.56
2019-03-30T15:53:28.132Z,101479.77
2019-03-30T15:58:32.971Z,101482.62
2019-03-30T16:03:37.443Z,101475.52
2019-03-30T16:08:41.894Z,101473.53
2019-03-30T16:13:47.947Z,101469.45
2019-03-30T16:18:52.377Z,101464.89
2019-03-30T16:23:56.964Z,101469.27
2019-03-30T16:29:01.480Z,101469.32
2019-03-30T16:34:06.301Z,101477.94
2019-03-30T16:39:10.759Z,101476.41
2019-03-30T16:44:15.917Z,101477.75
2019-03-30T16:49:20.912Z,101469.91
2019-03-30T16:54:25.341Z,101468.40
2019-03-30T16:59:30.970Z,101466.63
2019-03-30T17:04:35.713Z,101465.38
2019-03-30T17:09:40.212Z,101459.58
2019-03-30T17:14:44.570Z,101457.95
2019-03-30T17:19:49.105Z,101465.17
2019-03-30T17:24:53.696Z,101469.73
2019-03-30T17:29:58.882Z,101466.34
2019-03-30T17:35:04.284Z,101460.03
2019-03-30T17:40:09.766Z,101459.83
2019-03-30T17:45:14.891Z,101467.73
2019-03-30T17:50:19.437Z,101470.51
2019-03-30T17:55:33.573Z,101468.01
2019-03-30T18:00:30.526Z,101469.38
2019-03-30T18:05:35.770Z,101473.45
2019-03-30T18:10:40.402Z,101474.80
2019-03-30T18:15:44.816Z,101478.80
2019-03-30T18:20:49.275Z,101485.48
2019-03-30T18:25:54.083Z,101491.73
2019-03-30T18:30:58.589Z,101502.17
2019-03-30T18:36:04.675Z,101509.52
2019-03-30T18:41:09.189Z,101511.09
2019-03-30T18:46:13.813Z,101520.12
2019-03-30T18:51:21.899Z,101526.48
2019-03-30T18:56:28.056Z,101527.20
2019-03-30T19:01:35.941Z,101530.24
2019-03-30T19:06:43.916Z,101527.81
2019-03-30T19:11:47.576Z,101535.92
2019-03-30T19:16:55.295Z,101533.26
2019-03-30T19:22:11.839Z,101534.55
2019-03-30T19:27:20.011Z,101554.50
2019-03-30T19:32:38.176Z,101558.45
2019-03-30T19:37:45.455Z,101557.22
2019-03-30T19:42:54.952Z,101566.42
2019-03-30T19:48:37.157Z,101567.52
2019-03-30T19:53:40.975Z,101570.60
2019-03-30T19:58:44.532Z,101567.97
2019-03-30T20:03:48.072Z,101584.24
2019-03-30T20:08:51.593Z,101576.66
2019-03-30T20:13:55.147Z,101575.97
2019-03-30T20:19:11.668Z,101583.95
2019-03-30T20:24:04.363Z,101593.02
2019-03-30T20:29:08.273Z,101590.03
2019-03-30T20:34:11.888Z,101596.00
2019-03-30T20:39:15.530Z,101601.87
2019-03-30T20:44:19.065Z,101596.80
2019-03-30T20:49:37.033Z,101598.52
2019-03-30T20:54:42.757Z,101602.33
2019-03-30T20:59:52.224Z,101604.72
2019-03-30T21:05:03.878Z,101603.64
2019-03-30T21:10:08.444Z,101599.98
2019-03-30T21:15:13.882Z,101603.34
2019-03-30T21:20:17.554Z,101606.79
2019-03-30T21:25:21.317Z,101610.02
2019-03-30T21:30:25.128Z,101606.14
2019-03-30T21:35:28.976Z,101614.62
2019-03-30T21:40:32.766Z,101619.47
2019-03-30T21:45:36.534Z,101620.73
2019-03-30T21:50:40.233Z,101628.81
2019-03-30T21:56:02.562Z,101615.13
2019-03-30T22:01:12.996Z,101628.43
2019-03-30T22:06:19.671Z,101629.20
2019-03-30T22:11:36.602Z,101625.70
2019-03-30T22:16:46.488Z,101626.28
2019-03-30T22:21:50.746Z,101622.83
2019-03-30T22:26:54.487Z,101631.24
2019-03-30T22:31:58.325Z,101629.73
2019-03-30T22:37:02.112Z,101632.38
2019-03-30T22:42:05.815Z,101626.96
2019-03-30T22:47:09.510Z,101633.62
2019-03-30T22:52:13.194Z,101636.81
2019-03-30T22:57:16.912Z,101633.53
2019-03-30T23:02:20.608Z,101640.58
2019-03-30T23:07:24.339Z,101639.91
2019-03-30T23:12:27.939Z,101651.92
2019-03-30T23:17:35.342Z,101647.84
2019-03-30T23:22:40.610Z,101642.56
2019-03-30T23:27:44.142Z,101640.73
2019-03-30T23:32:47.706Z,101635.53
2019-03-30T23:37:51.302Z,101640.66
2019-03-30T23:42:54.922Z,101642.97
2019-03-30T23:47:58.463Z,101640.05
2019-03-30T23:53:01.999Z,101645.42
2019-03-30T23:58:05.545Z,101645.14
